createdAt,value
2018-07-28T00:00:28.935Z,1001.98
2018-07-28T00:01:28.931Z,1001.99
2018-07-28T00:03:29.417Z,1001.94
2018-07-28T00:04:29.195Z,1001.95
2018-07-28T00:06:35.072Z,1001.92
2018-07-28T00:07:34.979Z,1001.94
2018-07-28T00:09:45.384Z,1001.91
2018-07-28T00:10:45.307Z,1001.95
2018-07-28T00:12:48.247Z,1001.87
2018-07-28T00:13:48.140Z,1001.87
2018-07-28T00:16:01.186Z,1001.84
2018-07-28T00:17:01.174Z,1001.81
2018-07-28T00:19:10.039Z,1001.82
2018-07-28T00:20:09.856Z,1001.77
2018-07-28T00:22:12.885Z,1001.75
2018-07-28T00:23:12.709Z,1001.75
2018-07-28T00:25:16.189Z,1001.71
2018-07-28T00:26:16.122Z,1001.70
2018-07-28T00:28:20.530Z,1001.75
2018-07-28T00:29:20.448Z,1001.76
2018-07-28T00:31:24.901Z,1001.78
2018-07-28T00:32:24.823Z,1001.78
2018-07-28T00:34:37.991Z,1001.75
2018-07-28T00:35:37.628Z,1001.75
2018-07-28T00:37:41.079Z,1001.72
2018-07-28T00:38:41.262Z,1001.71
2018-07-28T00:40:51.423Z,1001.69
2018-07-28T00:41:51.269Z,1001.69
2018-07-28T00:43:55.851Z,1001.68
2018-07-28T00:44:55.644Z,1001.63
2018-07-28T00:47:01.514Z,1001.62
2018-07-28T00:48:01.460Z,1001.57
2018-07-28T00:50:14.338Z,1001.56
2018-07-28T00:51:14.372Z,1001.56
2018-07-28T00:53:20.086Z,1001.54
2018-07-28T00:54:20.100Z,1001.60
2018-07-28T00:55:19.991Z,1001.58
2018-07-28T00:56:19.962Z,1001.54
2018-07-28T00:57:20.072Z,1001.60
2018-07-28T00:58:19.922Z,1001.56
2018-07-28T00:59:19.881Z,1001.60
2018-07-28T01:00:19.862Z,1001.58
2018-07-28T01:01:19.837Z,1001.62
2018-07-28T01:02:19.821Z,1001.58
2018-07-28T01:03:19.802Z,1001.59
2018-07-28T01:04:19.774Z,1001.61
2018-07-28T01:05:19.768Z,1001.65
2018-07-28T01:06:19.754Z,1001.68
2018-07-28T01:07:19.722Z,1001.69
2018-07-28T01:08:19.710Z,1001.79
2018-07-28T01:09:19.683Z,1001.98
2018-07-28T01:10:19.663Z,1002.10
2018-07-28T01:11:19.644Z,1002.07
2018-07-28T01:12:19.627Z,1002.09
2018-07-28T01:13:19.598Z,1002.07
2018-07-28T01:14:19.580Z,1001.84
2018-07-28T01:15:19.558Z,1001.67
2018-07-28T01:16:19.544Z,1001.63
2018-07-28T01:17:19.563Z,1001.58
2018-07-28T01:18:19.497Z,1001.59
2018-07-28T01:19:19.483Z,1001.55
2018-07-28T01:20:19.478Z,1001.60
2018-07-28T01:21:19.434Z,1001.63
2018-07-28T01:22:19.423Z,1001.68
2018-07-28T01:23:19.478Z,1001.77
2018-07-28T01:24:19.389Z,1001.90
2018-07-28T01:25:19.364Z,1001.99
2018-07-28T01:26:19.348Z,1002.06
2018-07-28T01:27:19.315Z,1002.09
2018-07-28T01:28:19.297Z,1002.06
2018-07-28T01:29:19.276Z,1001.93
2018-07-28T01:30:19.257Z,1001.79
2018-07-28T01:31:19.239Z,1001.74
2018-07-28T01:32:19.220Z,1001.76
2018-07-28T01:33:19.191Z,1001.83
2018-07-28T01:34:19.174Z,1001.98
2018-07-28T01:35:19.155Z,1002.04
2018-07-28T01:36:19.129Z,1002.09
2018-07-28T01:37:19.121Z,1002.08
2018-07-28T01:38:19.097Z,1002.04
2018-07-28T01:39:19.074Z,1001.94
2018-07-28T01:40:19.060Z,1001.88
2018-07-28T01:41:19.028Z,1001.84
2018-07-28T01:42:19.012Z,1001.81
2018-07-28T01:43:18.993Z,1001.77
2018-07-28T01:44:18.990Z,1001.74
2018-07-28T01:45:18.944Z,1001.72
2018-07-28T01:46:18.940Z,1001.74
2018-07-28T01:47:18.908Z,1001.74
2018-07-28T01:48:18.890Z,1001.77
2018-07-28T01:49:18.885Z,1001.79
2018-07-28T01:50:18.864Z,1001.77
2018-07-28T01:51:18.834Z,1001.79
2018-07-28T01:52:18.813Z,1001.71
2018-07-28T01:53:18.860Z,1001.67
2018-07-28T01:54:18.763Z,1001.63
2018-07-28T01:55:18.745Z,1001.59
2018-07-28T01:56:18.731Z,1001.60
2018-07-28T01:57:18.717Z,1001.60
2018-07-28T01:58:18.688Z,1001.54
2018-07-28T01:59:18.659Z,1001.58
2018-07-28T02:00:18.643Z,1001.60
2018-07-28T02:01:18.623Z,1001.59
2018-07-28T02:02:18.604Z,1001.56
2018-07-28T02:03:18.588Z,1001.52
2018-07-28T02:04:18.564Z,1001.49
2018-07-28T02:05:18.539Z,1001.47
2018-07-28T02:06:18.520Z,1001.49
2018-07-28T02:07:18.492Z,1001.46
2018-07-28T02:08:18.474Z,1001.47
2018-07-28T02:09:18.459Z,1001.41
2018-07-28T02:10:18.457Z,1001.42
2018-07-28T02:11:18.423Z,1001.39
2018-07-28T02:12:18.395Z,1001.38
2018-07-28T02:13:18.377Z,1001.29
2018-07-28T02:14:18.353Z,1001.21
2018-07-28T02:15:18.334Z,1001.21
2018-07-28T02:16:18.312Z,1001.15
2018-07-28T02:17:18.288Z,1001.14
2018-07-28T02:18:18.268Z,1001.14
2018-07-28T02:19:18.244Z,1001.11
2018-07-28T02:20:18.230Z,1001.13
2018-07-28T02:21:18.207Z,1001.11
2018-07-28T02:22:18.192Z,1001.07
2018-07-28T02:23:18.173Z,1001.00
2018-07-28T02:24:18.145Z,1000.96
2018-07-28T02:25:18.126Z,1000.98
2018-07-28T02:26:18.100Z,1001.01
2018-07-28T02:27:18.077Z,1000.99
2018-07-28T02:28:18.058Z,1000.97
2018-07-28T02:29:18.043Z,1001.00
2018-07-28T02:30:18.028Z,1001.03
2018-07-28T02:31:18.004Z,1001.01
2018-07-28T02:32:17.978Z,1001.01
2018-07-28T02:33:17.957Z,1001.00
2018-07-28T02:34:17.939Z,1000.96
2018-07-28T02:35:17.951Z,1000.92
2018-07-28T02:36:17.901Z,1000.93
2018-07-28T02:37:17.872Z,1000.95
2018-07-28T02:38:17.860Z,1000.90
2018-07-28T02:39:17.839Z,1000.86
2018-07-28T02:40:17.813Z,1000.83
2018-07-28T02:41:17.799Z,1000.83
2018-07-28T02:42:17.783Z,1000.83
2018-07-28T02:43:17.761Z,1000.82
2018-07-28T02:44:17.731Z,1000.80
2018-07-28T02:45:17.705Z,1000.81
2018-07-28T02:46:17.684Z,1000.81
2018-07-28T02:47:17.680Z,1000.81
2018-07-28T02:48:17.653Z,1000.77
2018-07-28T02:49:17.626Z,1000.74
2018-07-28T02:50:17.635Z,1000.78
2018-07-28T02:51:17.581Z,1000.78
2018-07-28T02:52:17.558Z,1000.74
2018-07-28T02:53:17.544Z,1000.74
2018-07-28T02:54:17.530Z,1000.75
2018-07-28T02:55:17.500Z,1000.72
2018-07-28T02:56:17.480Z,1000.72
2018-07-28T02:57:17.457Z,1000.75
2018-07-28T02:58:17.433Z,1000.75
2018-07-28T02:59:17.414Z,1000.78
2018-07-28T03:00:17.421Z,1000.83
2018-07-28T03:01:17.385Z,1001.02
2018-07-28T03:02:17.435Z,1001.58
2018-07-28T03:03:17.411Z,1002.01
2018-07-28T03:04:17.423Z,1002.03
2018-07-28T03:05:17.321Z,1001.99
2018-07-28T03:06:17.449Z,1001.90
2018-07-28T03:07:17.255Z,1001.56
2018-07-28T03:08:17.230Z,1001.51
2018-07-28T03:09:17.210Z,1001.76
2018-07-28T03:10:17.215Z,1001.88
2018-07-28T03:11:17.162Z,1002.00
2018-07-28T03:12:17.146Z,1002.00
2018-07-28T03:13:17.116Z,1001.82
2018-07-28T03:14:17.106Z,1001.65
2018-07-28T03:15:17.091Z,1001.64
2018-07-28T03:16:17.058Z,1001.80
2018-07-28T03:17:17.039Z,1001.97
2018-07-28T03:18:17.015Z,1002.18
2018-07-28T03:19:16.992Z,1002.14
2018-07-28T03:20:16.973Z,1002.07
2018-07-28T03:21:16.946Z,1001.72
2018-07-28T03:22:16.932Z,1001.28
2018-07-28T03:23:16.945Z,1001.06
2018-07-28T03:24:16.881Z,1001.03
2018-07-28T03:25:16.867Z,1001.36
2018-07-28T03:26:16.850Z,1001.88
2018-07-28T03:27:16.829Z,1001.99
2018-07-28T03:28:16.794Z,1002.12
2018-07-28T03:29:16.793Z,1002.02
2018-07-28T03:30:16.817Z,1001.69
2018-07-28T03:31:16.728Z,1001.46
2018-07-28T03:32:16.716Z,1001.63
2018-07-28T03:33:16.707Z,1001.82
2018-07-28T03:34:18.187Z,1001.99
2018-07-28T03:35:16.654Z,1001.96
2018-07-28T03:36:16.631Z,1001.76
2018-07-28T03:37:16.600Z,1001.56
2018-07-28T03:38:16.598Z,1001.61
2018-07-28T03:39:16.563Z,1001.77
2018-07-28T03:40:16.536Z,1001.83
2018-07-28T03:41:16.524Z,1001.80
2018-07-28T03:42:16.496Z,1001.69
2018-07-28T03:43:16.477Z,1001.65
2018-07-28T03:44:16.460Z,1001.58
2018-07-28T03:45:16.423Z,1001.70
2018-07-28T03:46:16.403Z,1001.75
2018-07-28T03:47:16.423Z,1001.82
2018-07-28T03:48:16.358Z,1001.94
2018-07-28T03:49:16.347Z,1001.90
2018-07-28T03:50:16.322Z,1001.66
2018-07-28T03:51:16.297Z,1001.47
2018-07-28T03:52:16.277Z,1001.33
2018-07-28T03:53:16.266Z,1001.31
2018-07-28T03:54:17.134Z,1001.47
2018-07-28T03:55:16.263Z,1001.63
2018-07-28T03:56:16.280Z,1001.86
2018-07-28T03:57:16.161Z,1002.02
2018-07-28T03:58:16.245Z,1001.85
2018-07-28T03:59:16.188Z,1001.63
2018-07-28T04:00:16.093Z,1001.49
2018-07-28T04:01:16.084Z,1001.41
2018-07-28T04:02:16.158Z,1001.40
2018-07-28T04:03:16.033Z,1001.45
2018-07-28T04:04:16.068Z,1001.60
2018-07-28T04:05:15.987Z,1001.74
2018-07-28T04:06:15.964Z,1001.84
2018-07-28T04:07:15.949Z,1001.78
2018-07-28T04:08:15.925Z,1001.71
2018-07-28T04:09:15.899Z,1001.57
2018-07-28T04:10:15.882Z,1001.47
2018-07-28T04:11:15.853Z,1001.39
2018-07-28T04:12:15.983Z,1001.39
2018-07-28T04:13:15.812Z,1001.47
2018-07-28T04:14:15.901Z,1001.53
2018-07-28T04:15:15.772Z,1001.56
2018-07-28T04:16:15.746Z,1001.51
2018-07-28T04:17:15.727Z,1001.48
2018-07-28T04:18:15.703Z,1001.46
2018-07-28T04:19:15.679Z,1001.54
2018-07-28T04:20:15.653Z,1001.60
2018-07-28T04:21:15.655Z,1001.70
2018-07-28T04:22:15.620Z,1001.74
2018-07-28T04:23:15.596Z,1001.68
2018-07-28T04:24:15.572Z,1001.55
2018-07-28T04:25:16.389Z,1001.41
2018-07-28T04:26:15.836Z,1001.33
2018-07-28T04:27:15.504Z,1001.34
2018-07-28T04:28:15.484Z,1001.38
2018-07-28T04:29:15.469Z,1001.43
2018-07-28T04:30:15.449Z,1001.49
2018-07-28T04:31:15.422Z,1001.55
2018-07-28T04:32:15.383Z,1001.53
2018-07-28T04:33:15.373Z,1001.53
2018-07-28T04:34:15.342Z,1001.45
2018-07-28T04:35:15.357Z,1001.35
2018-07-28T04:36:15.309Z,1001.32
2018-07-28T04:37:15.283Z,1001.26
2018-07-28T04:38:36.557Z,1001.24
2018-07-28T04:40:18.755Z,1001.16
2018-07-28T04:41:18.772Z,1001.12
2018-07-28T04:43:22.057Z,1001.16
2018-07-28T04:44:22.047Z,1001.20
2018-07-28T04:46:26.371Z,1001.23
2018-07-28T04:47:26.341Z,1001.25
2018-07-28T04:48:26.341Z,1001.18
2018-07-28T04:49:26.272Z,1001.16
2018-07-28T04:50:26.302Z,1001.10
2018-07-28T04:51:26.189Z,1001.05
2018-07-28T04:52:26.139Z,1001.01
2018-07-28T04:53:26.113Z,1001.02
2018-07-28T04:54:26.085Z,1001.10
2018-07-28T04:55:26.079Z,1001.12
2018-07-28T04:56:26.146Z,1001.16
2018-07-28T04:57:26.031Z,1001.19
2018-07-28T04:58:26.000Z,1001.19
2018-07-28T04:59:25.976Z,1001.14
2018-07-28T05:00:25.957Z,1001.13
2018-07-28T05:01:25.940Z,1001.05
2018-07-28T05:02:25.977Z,1001.03
2018-07-28T05:03:25.929Z,1001.01
2018-07-28T05:04:25.876Z,1001.05
2018-07-28T05:05:25.854Z,1001.05
2018-07-28T05:06:25.831Z,1001.08
2018-07-28T05:07:25.859Z,1001.10
2018-07-28T05:08:25.793Z,1001.08
2018-07-28T05:09:25.776Z,1001.13
2018-07-28T05:10:25.744Z,1001.08
2018-07-28T05:11:25.708Z,1001.09
2018-07-28T05:12:25.755Z,1001.00
2018-07-28T05:13:25.674Z,1001.01
2018-07-28T05:14:25.708Z,1000.97
2018-07-28T05:15:25.641Z,1000.96
2018-07-28T05:16:25.603Z,1000.98
2018-07-28T05:17:25.598Z,1001.05
2018-07-28T05:18:25.575Z,1001.01
2018-07-28T05:19:25.556Z,1001.03
2018-07-28T05:20:25.514Z,1001.03
2018-07-28T05:21:25.554Z,1001.06
2018-07-28T05:22:25.477Z,1001.05
2018-07-28T05:23:25.450Z,1000.96
2018-07-28T05:24:25.450Z,1000.93
2018-07-28T05:25:25.414Z,1000.93
2018-07-28T05:26:25.388Z,1000.90
2018-07-28T05:27:25.378Z,1000.89
2018-07-28T05:28:25.348Z,1000.85
2018-07-28T05:29:25.327Z,1000.80
2018-07-28T05:30:25.314Z,1000.75
2018-07-28T05:31:25.281Z,1000.78
2018-07-28T05:32:25.267Z,1000.76
2018-07-28T05:33:25.236Z,1000.77
2018-07-28T05:34:25.224Z,1000.77
2018-07-28T05:35:25.226Z,1000.82
2018-07-28T05:36:25.176Z,1000.86
2018-07-28T05:37:25.170Z,1000.88
2018-07-28T05:38:25.161Z,1000.88
2018-07-28T05:39:25.137Z,1000.88
2018-07-28T05:40:25.089Z,1000.89
2018-07-28T05:41:25.067Z,1000.86
2018-07-28T05:42:25.114Z,1000.80
2018-07-28T05:43:25.025Z,1000.83
2018-07-28T05:44:24.997Z,1000.83
2018-07-28T05:45:24.989Z,1000.84
2018-07-28T05:46:24.967Z,1000.88
2018-07-28T05:47:24.937Z,1000.94
2018-07-28T05:48:24.909Z,1000.98
2018-07-28T05:49:24.893Z,1001.00
2018-07-28T05:50:24.916Z,1001.02
2018-07-28T05:51:24.852Z,1000.97
2018-07-28T05:52:24.829Z,1000.92
2018-07-28T05:53:24.814Z,1000.91
2018-07-28T05:54:24.786Z,1000.87
2018-07-28T05:55:24.765Z,1000.88
2018-07-28T05:56:24.757Z,1000.91
2018-07-28T05:57:24.727Z,1000.91
2018-07-28T05:58:24.707Z,1001.00
2018-07-28T05:59:24.690Z,1001.00
2018-07-28T06:00:24.659Z,1001.00
2018-07-28T06:01:24.638Z,1001.07
2018-07-28T06:02:24.743Z,1001.16
2018-07-28T06:03:24.605Z,1001.35
2018-07-28T06:04:24.584Z,1001.62
2018-07-28T06:05:24.554Z,1001.99
2018-07-28T06:06:24.533Z,1002.11
2018-07-28T06:07:24.526Z,1002.18
2018-07-28T06:08:24.493Z,1002.22
2018-07-28T06:09:24.482Z,1001.88
2018-07-28T06:10:24.465Z,1001.76
2018-07-28T06:11:24.433Z,1001.74
2018-07-28T06:12:24.413Z,1001.84
2018-07-28T06:13:24.386Z,1001.94
2018-07-28T06:14:24.361Z,1002.01
2018-07-28T06:15:24.346Z,1002.07
2018-07-28T06:16:24.319Z,1002.04
2018-07-28T06:17:24.296Z,1001.97
2018-07-28T06:18:24.276Z,1001.87
2018-07-28T06:19:24.281Z,1001.90
2018-07-28T06:20:24.287Z,1002.06
2018-07-28T06:21:24.219Z,1002.13
2018-07-28T06:22:24.186Z,1002.23
2018-07-28T06:23:24.182Z,1002.26
2018-07-28T06:24:24.142Z,1002.23
2018-07-28T06:25:24.135Z,1002.18
2018-07-28T06:26:24.102Z,1002.10
2018-07-28T06:27:24.075Z,1002.10
2018-07-28T06:28:24.103Z,1002.07
2018-07-28T06:29:24.036Z,1002.12
2018-07-28T06:30:24.034Z,1002.20
2018-07-28T06:31:24.001Z,1002.21
2018-07-28T06:32:23.977Z,1002.21
2018-07-28T06:33:23.951Z,1002.20
2018-07-28T06:34:23.923Z,1002.15
2018-07-28T06:35:23.902Z,1002.08
2018-07-28T06:36:23.935Z,1002.04
2018-07-28T06:37:23.854Z,1001.94
2018-07-28T06:38:23.838Z,1001.93
2018-07-28T06:39:23.817Z,1001.92
2018-07-28T06:40:23.805Z,1001.97
2018-07-28T06:41:23.764Z,1002.02
2018-07-28T06:42:23.751Z,1002.01
2018-07-28T06:43:23.731Z,1001.99
2018-07-28T06:44:23.720Z,1001.96
2018-07-28T06:45:23.678Z,1001.90
2018-07-28T06:46:23.664Z,1001.99
2018-07-28T06:47:23.708Z,1002.10
2018-07-28T06:48:23.638Z,1002.10
2018-07-28T06:49:23.708Z,1002.11
2018-07-28T06:50:23.567Z,1002.08
2018-07-28T06:51:23.549Z,1002.06
2018-07-28T06:52:23.523Z,1002.07
2018-07-28T06:53:23.502Z,1002.01
2018-07-28T06:54:23.487Z,1001.99
2018-07-28T06:55:23.466Z,1001.95
2018-07-28T06:56:23.432Z,1001.93
2018-07-28T06:57:23.430Z,1001.91
2018-07-28T06:58:23.429Z,1002.02
2018-07-28T06:59:23.363Z,1002.02
2018-07-28T07:00:23.346Z,1002.00
2018-07-28T07:01:23.326Z,1002.01
2018-07-28T07:02:23.306Z,1002.06
2018-07-28T07:03:23.276Z,1002.12
2018-07-28T07:04:23.245Z,1002.12
2018-07-28T07:05:23.228Z,1002.11
2018-07-28T07:06:23.203Z,1002.11
2018-07-28T07:07:23.179Z,1002.17
2018-07-28T07:08:23.160Z,1002.17
2018-07-28T07:09:23.132Z,1002.18
2018-07-28T07:10:23.115Z,1002.13
2018-07-28T07:11:23.092Z,1002.13
2018-07-28T07:12:23.072Z,1002.12
2018-07-28T07:13:23.043Z,1002.11
2018-07-28T07:14:23.013Z,1002.12
2018-07-28T07:15:23.019Z,1002.15
2018-07-28T07:16:22.966Z,1002.19
2018-07-28T07:17:22.945Z,1002.22
2018-07-28T07:18:22.921Z,1002.20
2018-07-28T07:19:22.893Z,1002.18
2018-07-28T07:20:22.882Z,1002.13
2018-07-28T07:21:22.852Z,1002.13
2018-07-28T07:22:22.842Z,1002.14
2018-07-28T07:23:22.811Z,1002.18
2018-07-28T07:24:22.780Z,1002.22
2018-07-28T07:25:22.788Z,1002.26
2018-07-28T07:26:22.738Z,1002.27
2018-07-28T07:27:22.725Z,1002.27
2018-07-28T07:28:22.731Z,1002.30
2018-07-28T07:29:22.737Z,1002.28
2018-07-28T07:30:22.710Z,1002.24
2018-07-28T07:31:22.631Z,1002.27
2018-07-28T07:32:22.622Z,1002.28
2018-07-28T07:33:22.635Z,1002.28
2018-07-28T07:34:22.558Z,1002.29
2018-07-28T07:35:22.534Z,1002.27
2018-07-28T07:36:22.611Z,1002.25
2018-07-28T07:37:22.503Z,1002.26
2018-07-28T07:38:22.458Z,1002.28
2018-07-28T07:39:22.442Z,1002.31
2018-07-28T07:40:22.462Z,1002.36
2018-07-28T07:41:22.406Z,1002.39
2018-07-28T07:42:22.463Z,1002.42
2018-07-28T07:43:22.359Z,1002.48
2018-07-28T07:44:22.354Z,1002.48
2018-07-28T07:45:22.312Z,1002.51
2018-07-28T07:46:22.289Z,1002.52
2018-07-28T07:47:22.315Z,1002.51
2018-07-28T07:48:22.262Z,1002.49
2018-07-28T07:49:22.228Z,1002.51
2018-07-28T07:50:22.216Z,1002.50
2018-07-28T07:51:22.178Z,1002.47
2018-07-28T07:52:22.157Z,1002.54
2018-07-28T07:53:22.141Z,1002.51
2018-07-28T07:54:22.120Z,1002.50
2018-07-28T07:55:22.106Z,1002.58
2018-07-28T07:56:22.083Z,1002.49
2018-07-28T07:57:22.050Z,1002.47
2018-07-28T07:58:22.046Z,1002.45
2018-07-28T07:59:22.014Z,1002.36
2018-07-28T08:00:21.983Z,1002.35
2018-07-28T08:01:21.968Z,1002.31
2018-07-28T08:02:21.946Z,1002.35
2018-07-28T08:03:21.919Z,1002.33
2018-07-28T08:04:21.970Z,1002.30
2018-07-28T08:05:21.889Z,1002.31
2018-07-28T08:06:21.902Z,1002.30
2018-07-28T08:07:21.863Z,1002.31
2018-07-28T08:08:21.871Z,1002.31
2018-07-28T08:09:21.799Z,1002.31
2018-07-28T08:10:21.767Z,1002.34
2018-07-28T08:11:21.779Z,1002.35
2018-07-28T08:12:21.759Z,1002.33
2018-07-28T08:13:21.710Z,1002.30
2018-07-28T08:14:21.696Z,1002.27
2018-07-28T08:15:21.737Z,1002.30
2018-07-28T08:16:21.643Z,1002.21
2018-07-28T08:17:21.624Z,1002.25
2018-07-28T08:18:21.626Z,1002.27
2018-07-28T08:19:21.613Z,1002.30
2018-07-28T08:20:21.669Z,1002.31
2018-07-28T08:21:21.543Z,1002.28
2018-07-28T08:22:21.547Z,1002.31
2018-07-28T08:23:21.502Z,1002.33
2018-07-28T08:24:21.467Z,1002.36
2018-07-28T08:25:21.465Z,1002.40
2018-07-28T08:26:21.487Z,1002.36
2018-07-28T08:27:21.478Z,1002.40
2018-07-28T08:28:21.421Z,1002.39
2018-07-28T08:29:21.381Z,1002.42
2018-07-28T08:30:21.344Z,1002.45
2018-07-28T08:31:21.320Z,1002.47
2018-07-28T08:32:21.316Z,1002.48
2018-07-28T08:33:21.304Z,1002.49
2018-07-28T08:34:21.267Z,1002.52
2018-07-28T08:35:21.237Z,1002.52
2018-07-28T08:36:21.235Z,1002.52
2018-07-28T08:37:21.203Z,1002.55
2018-07-28T08:38:21.187Z,1002.55
2018-07-28T08:39:21.154Z,1002.61
2018-07-28T08:40:21.133Z,1002.70
2018-07-28T08:41:21.110Z,1002.69
2018-07-28T08:42:21.089Z,1002.74
2018-07-28T08:43:21.077Z,1002.83
2018-07-28T08:44:21.059Z,1002.87
2018-07-28T08:45:21.082Z,1002.92
2018-07-28T08:46:21.020Z,1002.91
2018-07-28T08:47:21.003Z,1002.92
2018-07-28T08:48:20.990Z,1002.99
2018-07-28T08:49:21.031Z,1002.95
2018-07-28T08:50:20.932Z,1002.96
2018-07-28T08:51:20.912Z,1002.91
2018-07-28T08:52:20.940Z,1002.93
2018-07-28T08:53:20.873Z,1002.95
2018-07-28T08:54:20.855Z,1002.96
2018-07-28T08:55:20.835Z,1002.99
2018-07-28T08:56:20.840Z,1003.07
2018-07-28T08:57:20.791Z,1003.09
2018-07-28T08:58:20.765Z,1003.12
2018-07-28T08:59:20.746Z,1003.14
2018-07-28T09:00:20.727Z,1003.16
2018-07-28T09:01:20.697Z,1003.26
2018-07-28T09:02:20.701Z,1003.28
2018-07-28T09:03:20.667Z,1003.28
2018-07-28T09:04:20.642Z,1003.31
2018-07-28T09:05:20.617Z,1003.35
2018-07-28T09:06:20.600Z,1003.39
2018-07-28T09:07:20.588Z,1003.41
2018-07-28T09:08:20.558Z,1003.40
2018-07-28T09:09:20.540Z,1003.40
2018-07-28T09:10:20.532Z,1003.42
2018-07-28T09:11:20.567Z,1003.41
2018-07-28T09:12:20.481Z,1003.39
2018-07-28T09:13:20.455Z,1003.42
2018-07-28T09:14:20.427Z,1003.40
2018-07-28T09:15:20.423Z,1003.35
2018-07-28T09:16:20.403Z,1003.40
2018-07-28T09:17:20.377Z,1003.38
2018-07-28T09:18:20.352Z,1003.41
2018-07-28T09:19:20.333Z,1003.43
2018-07-28T09:20:20.315Z,1003.40
2018-07-28T09:21:42.823Z,1003.43
2018-07-28T09:23:29.433Z,1003.49
2018-07-28T09:24:29.251Z,1003.46
2018-07-28T09:26:32.624Z,1003.48
2018-07-28T09:27:32.635Z,1003.46
2018-07-28T09:29:40.396Z,1003.51
2018-07-28T09:30:40.470Z,1003.58
2018-07-28T09:32:46.058Z,1003.61
2018-07-28T09:33:44.713Z,1003.66
2018-07-28T09:35:49.379Z,1003.66
2018-07-28T09:36:49.208Z,1003.61
2018-07-28T09:38:52.101Z,1003.59
2018-07-28T09:39:52.052Z,1003.58
2018-07-28T09:41:52.435Z,1003.54
2018-07-28T09:42:52.278Z,1003.61
2018-07-28T09:45:00.261Z,1003.51
2018-07-28T09:46:00.241Z,1003.54
2018-07-28T09:48:03.607Z,1003.47
2018-07-28T09:49:03.515Z,1003.45
2018-07-28T09:51:07.061Z,1003.40
2018-07-28T09:52:06.942Z,1003.37
2018-07-28T09:54:08.204Z,1003.36
2018-07-28T09:55:08.214Z,1003.39
2018-07-28T09:57:18.599Z,1003.42
2018-07-28T09:58:18.513Z,1003.37
2018-07-28T10:00:30.439Z,1003.38
2018-07-28T10:01:29.850Z,1003.36
2018-07-28T10:03:33.407Z,1003.31
2018-07-28T10:04:33.273Z,1003.34
2018-07-28T10:06:36.911Z,1003.32
2018-07-28T10:07:36.687Z,1003.34
2018-07-28T10:09:56.434Z,1003.34
2018-07-28T10:10:56.076Z,1003.33
2018-07-28T10:13:00.176Z,1003.34
2018-07-28T10:13:59.679Z,1003.29
2018-07-28T10:16:03.098Z,1003.26
2018-07-28T10:17:03.086Z,1003.28
2018-07-28T10:19:08.315Z,1003.18
2018-07-28T10:21:08.101Z,1003.10
2018-07-28T10:22:07.931Z,1003.13
2018-07-28T10:23:07.782Z,1003.15
2018-07-28T10:24:07.739Z,1003.17
2018-07-28T10:25:07.744Z,1003.23
2018-07-28T10:26:07.706Z,1003.23
2018-07-28T10:27:07.688Z,1003.26
2018-07-28T10:28:07.659Z,1003.29
2018-07-28T10:29:07.728Z,1003.35
2018-07-28T10:30:07.626Z,1003.31
2018-07-28T10:31:07.606Z,1003.31
2018-07-28T10:32:07.590Z,1003.37
2018-07-28T10:33:07.576Z,1003.36
2018-07-28T10:34:07.539Z,1003.36
2018-07-28T10:35:07.517Z,1003.43
2018-07-28T10:36:07.493Z,1003.40
2018-07-28T10:37:07.483Z,1003.35
2018-07-28T10:38:07.463Z,1003.37
2018-07-28T10:39:07.444Z,1003.35
2018-07-28T10:40:07.414Z,1003.34
2018-07-28T10:41:07.400Z,1003.33
2018-07-28T10:42:07.394Z,1003.37
2018-07-28T10:43:07.362Z,1003.40
2018-07-28T10:44:07.345Z,1003.39
2018-07-28T10:45:07.328Z,1003.33
2018-07-28T10:46:07.309Z,1003.33
2018-07-28T10:47:07.281Z,1003.35
2018-07-28T10:48:07.267Z,1003.36
2018-07-28T10:49:07.242Z,1003.34
2018-07-28T10:50:07.223Z,1003.37
2018-07-28T10:51:07.217Z,1003.40
2018-07-28T10:52:07.196Z,1003.40
2018-07-28T10:53:07.166Z,1003.42
2018-07-28T10:54:07.154Z,1003.42
2018-07-28T10:55:07.131Z,1003.41
2018-07-28T10:56:07.118Z,1003.46
2018-07-28T10:57:07.094Z,1003.40
2018-07-28T10:58:07.073Z,1003.43
2018-07-28T10:59:07.053Z,1003.44
2018-07-28T11:00:07.114Z,1003.44
2018-07-28T11:01:07.015Z,1003.45
2018-07-28T11:02:06.988Z,1003.51
2018-07-28T11:03:06.983Z,1003.50
2018-07-28T11:04:06.964Z,1003.54
2018-07-28T11:05:06.937Z,1003.51
2018-07-28T11:06:06.913Z,1003.49
2018-07-28T11:07:06.900Z,1003.47
2018-07-28T11:08:06.915Z,1003.48
2018-07-28T11:09:06.865Z,1003.49
2018-07-28T11:10:06.856Z,1003.50
2018-07-28T11:11:06.877Z,1003.50
2018-07-28T11:12:06.798Z,1003.54
2018-07-28T11:13:06.779Z,1003.51
2018-07-28T11:14:06.786Z,1003.55
2018-07-28T11:15:06.743Z,1003.50
2018-07-28T11:16:06.731Z,1003.44
2018-07-28T11:17:28.080Z,1003.45
2018-07-28T11:19:29.447Z,1003.48
2018-07-28T11:20:17.167Z,1003.42
2018-07-28T11:22:30.047Z,1003.39
2018-07-28T11:23:30.040Z,1003.36
2018-07-28T11:25:34.349Z,1003.45
2018-07-28T11:26:34.392Z,1003.41
2018-07-28T11:28:38.682Z,1003.45
2018-07-28T11:29:38.640Z,1003.39
2018-07-28T11:31:51.524Z,1003.35
2018-07-28T11:32:52.141Z,1003.34
2018-07-28T11:34:54.405Z,1003.28
2018-07-28T11:35:54.395Z,1003.24
2018-07-28T11:37:57.477Z,1003.09
2018-07-28T11:38:57.182Z,1003.13
2018-07-28T11:40:57.548Z,1003.13
2018-07-28T11:41:57.489Z,1003.15
2018-07-28T11:44:03.359Z,1003.16
2018-07-28T11:45:03.346Z,1003.11
2018-07-28T11:47:13.843Z,1003.04
2018-07-28T11:48:13.698Z,1003.02
2018-07-28T11:50:16.772Z,1003.07
2018-07-28T11:51:16.625Z,1003.06
2018-07-28T11:53:19.920Z,1003.08
2018-07-28T11:54:19.394Z,1003.17
2018-07-28T11:56:22.802Z,1003.18
2018-07-28T11:57:22.823Z,1003.25
2018-07-28T11:59:27.070Z,1003.15
2018-07-28T12:00:26.941Z,1003.22
2018-07-28T12:01:26.970Z,1003.20
2018-07-28T12:02:27.023Z,1003.18
2018-07-28T12:03:27.038Z,1003.17
2018-07-28T12:04:26.855Z,1003.12
2018-07-28T12:05:26.847Z,1003.15
2018-07-28T12:06:26.818Z,1003.18
2018-07-28T12:07:26.802Z,1003.15
2018-07-28T12:08:26.792Z,1003.19
2018-07-28T12:09:26.771Z,1003.25
2018-07-28T12:10:26.752Z,1003.27
2018-07-28T12:11:26.735Z,1003.24
2018-07-28T12:12:26.731Z,1003.26
2018-07-28T12:13:26.705Z,1003.24
2018-07-28T12:14:26.699Z,1003.24
2018-07-28T12:15:26.675Z,1003.34
2018-07-28T12:16:26.662Z,1003.35
2018-07-28T12:17:26.634Z,1003.42
2018-07-28T12:18:26.680Z,1003.35
2018-07-28T12:19:26.605Z,1003.38
2018-07-28T12:20:26.579Z,1003.24
2018-07-28T12:21:26.573Z,1003.30
2018-07-28T12:22:26.556Z,1003.38
2018-07-28T12:23:26.533Z,1003.38
2018-07-28T12:24:26.615Z,1003.38
2018-07-28T12:25:26.508Z,1003.41
2018-07-28T12:26:26.509Z,1003.41
2018-07-28T12:27:26.507Z,1003.34
2018-07-28T12:28:26.460Z,1003.39
2018-07-28T12:29:26.444Z,1003.30
2018-07-28T12:30:26.436Z,1003.39
2018-07-28T12:31:26.429Z,1003.41
2018-07-28T12:32:26.413Z,1003.30
2018-07-28T12:33:26.384Z,1003.40
2018-07-28T12:34:26.365Z,1003.34
2018-07-28T12:35:26.348Z,1003.48
2018-07-28T12:36:26.344Z,1003.41
2018-07-28T12:37:26.324Z,1003.45
2018-07-28T12:38:26.395Z,1003.29
2018-07-28T12:39:26.296Z,1003.33
2018-07-28T12:40:46.694Z,1003.41
2018-07-28T12:42:35.251Z,1003.39
2018-07-28T12:43:35.167Z,1003.47
2018-07-28T12:45:38.048Z,1003.26
2018-07-28T12:46:38.062Z,1003.31
2018-07-28T12:48:43.950Z,1003.39
2018-07-28T12:49:44.096Z,1003.43
2018-07-28T12:51:49.656Z,1003.36
2018-07-28T12:52:49.710Z,1003.36
2018-07-28T12:53:49.626Z,1003.48
2018-07-28T12:54:49.614Z,1003.57
2018-07-28T12:55:49.602Z,1003.48
2018-07-28T12:56:49.579Z,1003.35
2018-07-28T12:57:49.591Z,1003.28
2018-07-28T12:58:49.551Z,1003.29
2018-07-28T12:59:49.533Z,1003.32
2018-07-28T13:00:49.525Z,1003.34
2018-07-28T13:01:49.535Z,1003.31
2018-07-28T13:02:49.497Z,1003.34
2018-07-28T13:03:49.505Z,1003.46
2018-07-28T13:04:49.458Z,1003.45
2018-07-28T13:05:49.447Z,1003.29
2018-07-28T13:06:49.440Z,1003.48
2018-07-28T13:07:49.419Z,1003.50
2018-07-28T13:08:49.397Z,1003.56